Terminal Aerodrome Forecast
Issued by NWS Charleston, WV

Current Version | Previous Version | Graphics & Text | Print | Product List | Glossary On
Versions: 1 2 3 4 5 6 7 8 9 10 11 12 13 14 15 16 17 18 19 20 21 22 23
000
FTUS41 KRLX 011100
TAFCRW
TAF
KCRW 011121Z 0112/0212 34004KT P6SM BKN014
      TEMPO 0112/0113 6SM -DZ BR OVC011
     FM011600 34005KT P6SM BKN035
     FM020200 VRB03KT P6SM FEW250
     FM020700 00000KT 6SM BR FEW250
     FM020800 00000KT 2SM BR SKC=

USA.gov is the U.S. government's official web portal to all federal, state and local government web resources and services.